Time,TemperatureF,DewpointF,PressureIn,WindDirection,WindDirectionDegrees,WindSpeedMPH,WindSpeedGustMPH,Humidity,HourlyPrecipIn,Conditions,Clouds,dailyrainin,SoftwareType,DateUTC
2013-02-26 00:01:00,33.0,32.0,30.22,West,267,2.0,-999.0,97,0.00,,,-99.99,,2013-02-26 05:01:00,
2013-02-26 00:12:00,33.0,32.0,30.22,West,267,2.0,-999.0,98,0.00,,,-99.99,,2013-02-26 05:12:00,
2013-02-26 00:22:00,33.0,32.0,30.22,West,267,2.0,-999.0,98,0.00,,,-99.99,,2013-02-26 05:22:00,
2013-02-26 00:32:00,33.0,32.0,30.23,WSW,256,3.0,-999.0,98,0.00,,,-99.99,,2013-02-26 05:32:00,
2013-02-26 00:43:00,33.0,32.0,30.23,WSW,256,3.0,-999.0,98,0.00,,,-99.99,,2013-02-26 05:43:00,
2013-02-26 00:52:00,32.0,32.0,30.23,West,267,2.0,-999.0,98,0.00,,,-99.99,,2013-02-26 05:52:00,
2013-02-26 01:02:00,33.0,33.0,30.24,West,267,2.0,-999.0,99,0.00,,,-99.99,,2013-02-26 06:02:00,
2013-02-26 01:11:00,33.0,33.0,30.24,West,267,2.0,-999.0,99,0.00,,,-99.99,,2013-02-26 06:11:00,
2013-02-26 01:21:00,33.0,32.0,30.24,West,267,1.0,-999.0,98,0.00,,,-99.99,,2013-02-26 06:21:00,
2013-02-26 01:32:00,33.0,33.0,30.24,West,267,2.0,-999.0,99,0.00,,,-99.99,,2013-02-26 06:32:00,
2013-02-26 01:42:00,33.0,33.0,30.24,West,267,2.0,-999.0,99,0.00,,,-99.99,,2013-02-26 06:42:00,
2013-02-26 01:52:00,33.0,33.0,30.24,North,350,0.0,-999.0,100,0.00,,,-99.99,,2013-02-26 06:52:00,
2013-02-26 02:01:00,32.0,32.0,30.24,North,0,0.0,-999.0,100,0.00,,,-99.99,,2013-02-26 07:01:00,
2013-02-26 02:11:00,32.0,32.0,30.24,North,0,0.0,-999.0,100,0.00,,,-99.99,,2013-02-26 07:11:00,
2013-02-26 02:32:00,33.0,33.0,30.23,SW,224,2.0,-999.0,100,0.00,,,-99.99,,2013-02-26 07:32:00,
2013-02-26 02:42:00,33.0,33.0,30.23,SW,224,2.0,-999.0,100,0.00,,,-99.99,,2013-02-26 07:42:00,
2013-02-26 02:51:00,33.0,33.0,30.23,WSW,256,2.0,-999.0,100,0.00,,,-99.99,,2013-02-26 07:51:00,
2013-02-26 03:11:00,33.0,33.0,30.23,West,267,2.0,-999.0,100,0.00,,,-99.99,,2013-02-26 08:11:00,
2013-02-26 03:21:00,33.0,33.0,30.23,West,267,2.0,-999.0,100,0.00,,,-99.99,,2013-02-26 08:21:00,
2013-02-26 04:02:00,33.0,33.0,30.26,West,267,1.0,-999.0,100,0.00,,,-99.99,,2013-02-26 09:02:00,
2013-02-26 04:11:00,33.0,33.0,30.26,West,267,1.0,-999.0,100,0.00,,,-99.99,,2013-02-26 09:11:00,
2013-02-26 09:32:00,38.0,38.0,30.32,East,100,2.0,-999.0,100,0.00,,,-99.99,,2013-02-26 14:32:00,
2013-02-26 09:42:00,38.0,38.0,30.32,East,100,2.0,-999.0,100,0.00,,,-99.99,,2013-02-26 14:42:00,
2013-02-26 09:52:00,39.0,38.0,30.32,NE,44,2.0,-999.0,98,0.00,,,-99.99,,2013-02-26 14:52:00,
2013-02-26 10:02:00,40.0,39.0,30.32,NE,44,4.0,-999.0,95,0.00,,,-99.99,,2013-02-26 15:02:00,
2013-02-26 10:11:00,40.0,39.0,30.32,NE,44,4.0,-999.0,95,0.00,,,-99.99,,2013-02-26 15:11:00,
2013-02-26 10:22:00,42.0,40.0,30.33,East,89,3.0,-999.0,93,0.00,,,-99.99,,2013-02-26 15:22:00,
2013-02-26 10:32:00,43.0,40.0,30.33,South,169,4.0,-999.0,90,0.00,,,-99.99,,2013-02-26 15:32:00,
2013-02-26 10:42:00,43.0,40.0,30.33,South,169,4.0,-999.0,90,0.00,,,-99.99,,2013-02-26 15:42:00,
2013-02-26 10:52:00,43.0,40.0,30.32,ESE,107,6.0,-999.0,90,0.00,,,-99.99,,2013-02-26 15:52:00,
2013-02-26 11:01:00,43.0,39.0,30.32,ENE,58,7.0,-999.0,85,0.00,,,-99.99,,2013-02-26 16:01:00,
2013-02-26 11:11:00,43.0,39.0,30.32,ENE,58,7.0,-999.0,85,0.00,,,-99.99,,2013-02-26 16:11:00,
2013-02-26 11:22:00,44.0,39.0,30.31,East,89,8.0,-999.0,84,0.00,,,-99.99,,2013-02-26 16:22:00,
2013-02-26 11:32:00,44.0,38.0,30.32,SE,146,6.0,-999.0,80,0.00,,,-99.99,,2013-02-26 16:32:00,
2013-02-26 11:42:00,44.0,38.0,30.32,SE,146,6.0,-999.0,80,0.00,,,-99.99,,2013-02-26 16:42:00,
2013-02-26 11:52:00,44.0,38.0,30.31,ESE,111,4.0,-999.0,79,0.00,,,-99.99,,2013-02-26 16:52:00,
2013-02-26 12:01:00,45.0,39.0,30.31,South,173,6.0,-999.0,79,0.00,,,-99.99,,2013-02-26 17:01:00,
2013-02-26 12:11:00,45.0,38.0,30.30,ESE,118,9.0,-999.0,77,0.00,,,-99.99,,2013-02-26 17:11:00,
2013-02-26 12:21:00,45.0,38.0,30.30,ESE,118,9.0,-999.0,77,0.00,,,-99.99,,2013-02-26 17:21:00,
2013-02-26 12:32:00,45.0,38.0,30.29,SE,131,5.0,-999.0,75,0.00,,,-99.99,,2013-02-26 17:32:00,
2013-02-26 12:42:00,45.0,38.0,30.29,SE,131,5.0,-999.0,75,0.00,,,-99.99,,2013-02-26 17:42:00,
2013-02-26 12:52:00,45.0,37.0,30.29,SSE,153,4.0,-999.0,73,0.00,,,-99.99,,2013-02-26 17:52:00,
2013-02-26 13:02:00,45.0,38.0,30.29,SSE,166,6.0,-999.0,75,0.00,,,-99.99,,2013-02-26 18:02:00,
2013-02-26 13:12:00,45.0,38.0,30.29,SSE,166,6.0,-999.0,75,0.00,,,-99.99,,2013-02-26 18:12:00,
2013-02-26 13:21:00,45.0,37.0,30.30,South,179,5.0,-999.0,74,0.00,,,-99.99,,2013-02-26 18:21:00,
2013-02-26 13:32:00,44.0,37.0,30.30,SE,138,3.0,-999.0,75,0.00,,,-99.99,,2013-02-26 18:32:00,
2013-02-26 13:42:00,44.0,37.0,30.30,SE,138,3.0,-999.0,75,0.00,,,-99.99,,2013-02-26 18:42:00,
2013-02-26 13:52:00,44.0,37.0,30.30,ESE,118,6.0,-999.0,76,0.00,,,-99.99,,2013-02-26 18:52:00,
2013-02-26 14:01:00,43.0,36.0,30.30,ESE,115,3.0,-999.0,77,0.00,,,-99.99,,2013-02-26 19:01:00,
2013-02-26 14:11:00,43.0,36.0,30.30,ESE,115,3.0,-999.0,77,0.00,,,-99.99,,2013-02-26 19:11:00,
2013-02-26 14:22:00,44.0,37.0,30.30,SE,135,3.0,-999.0,76,0.00,,,-99.99,,2013-02-26 19:22:00,
2013-02-26 14:32:00,43.0,36.0,30.30,East,89,6.0,-999.0,75,0.00,,,-99.99,,2013-02-26 19:32:00,
2013-02-26 14:42:00,43.0,36.0,30.30,East,89,6.0,-999.0,75,0.00,,,-99.99,,2013-02-26 19:42:00,
2013-02-26 14:52:00,43.0,35.0,30.29,SE,127,6.0,-999.0,74,0.00,,,-99.99,,2013-02-26 19:52:00,
2013-02-26 15:01:00,42.0,34.0,30.28,SE,134,5.0,-999.0,73,0.00,,,-99.99,,2013-02-26 20:01:00,
2013-02-26 15:11:00,42.0,34.0,30.28,SE,134,5.0,-999.0,73,0.00,,,-99.99,,2013-02-26 20:11:00,
2013-02-26 15:21:00,42.0,33.0,30.29,South,169,7.0,-999.0,70,0.00,,,-99.99,,2013-02-26 20:21:00,
2013-02-26 15:32:00,42.0,33.0,30.28,SE,139,7.0,-999.0,71,0.00,,,-99.99,,2013-02-26 20:32:00,
2013-02-26 15:41:00,42.0,33.0,30.28,SE,139,7.0,-999.0,71,0.00,,,-99.99,,2013-02-26 20:41:00,
2013-02-26 15:52:00,42.0,33.0,30.28,SE,134,5.0,-999.0,71,0.00,,,-99.99,,2013-02-26 20:52:00,
2013-02-26 16:01:00,42.0,33.0,30.27,SE,135,6.0,-999.0,70,0.00,,,-99.99,,2013-02-26 21:01:00,
2013-02-26 16:11:00,42.0,34.0,30.27,ESE,120,5.0,-999.0,72,0.00,,,-99.99,,2013-02-26 21:11:00,
2013-02-26 16:21:00,42.0,34.0,30.27,ESE,120,5.0,-999.0,72,0.00,,,-99.99,,2013-02-26 21:21:00,
2013-02-26 16:31:00,41.0,33.0,30.28,SE,134,5.0,-999.0,74,0.00,,,-99.99,,2013-02-26 21:31:00,
2013-02-26 16:41:00,41.0,33.0,30.28,SE,134,5.0,-999.0,74,0.00,,,-99.99,,2013-02-26 21:41:00,
2013-02-26 16:51:00,41.0,34.0,30.28,SE,135,4.0,-999.0,76,0.00,,,-99.99,,2013-02-26 21:51:00,
2013-02-26 17:01:00,40.0,33.0,30.28,ESE,115,7.0,-999.0,77,0.00,,,-99.99,,2013-02-26 22:01:00,
2013-02-26 17:11:00,40.0,34.0,30.28,ESE,118,3.0,-999.0,78,0.00,,,-99.99,,2013-02-26 22:11:00,
2013-02-26 17:21:00,40.0,34.0,30.28,ESE,118,3.0,-999.0,78,0.00,,,-99.99,,2013-02-26 22:21:00,
2013-02-26 17:32:00,40.0,34.0,30.28,ESE,118,3.0,-999.0,78,0.00,,,-99.99,,2013-02-26 22:32:00,
2013-02-26 17:41:00,40.0,34.0,30.28,ESE,118,3.0,-999.0,78,0.00,,,-99.99,,2013-02-26 22:41:00,
2013-02-26 17:51:00,39.0,32.0,30.27,ESE,115,2.0,-999.0,76,0.00,,,-99.99,,2013-02-26 22:51:00,
2013-02-26 18:01:00,38.0,31.0,30.27,SE,128,5.0,-999.0,76,0.00,,,-99.99,,2013-02-26 23:01:00,
2013-02-26 18:11:00,38.0,31.0,30.27,SE,128,5.0,-999.0,76,0.00,,,-99.99,,2013-02-26 23:11:00,
2013-02-26 18:21:00,38.0,31.0,30.27,SE,128,5.0,-999.0,76,0.00,,,-99.99,,2013-02-26 23:21:00,
2013-02-26 18:31:00,38.0,31.0,30.27,SE,134,3.0,-999.0,77,0.00,,,-99.99,,2013-02-26 23:31:00,
2013-02-26 18:41:00,38.0,31.0,30.27,SE,134,3.0,-999.0,77,0.00,,,-99.99,,2013-02-26 23:41:00,
2013-02-26 18:52:00,38.0,31.0,30.27,SE,128,4.0,-999.0,76,0.00,,,-99.99,,2013-02-26 23:52:00,
2013-02-26 19:02:00,37.0,31.0,30.27,ESE,121,3.0,-999.0,78,0.00,,,-99.99,,2013-02-27 00:02:00,
2013-02-26 19:11:00,37.0,31.0,30.27,ESE,121,3.0,-999.0,78,0.00,,,-99.99,,2013-02-27 00:11:00,
2013-02-26 19:22:00,37.0,31.0,30.26,SE,125,3.0,-999.0,79,0.00,,,-99.99,,2013-02-27 00:22:00,
2013-02-26 19:32:00,36.0,30.0,30.27,SE,134,2.0,-999.0,79,0.00,,,-99.99,,2013-02-27 00:32:00,
2013-02-26 19:42:00,36.0,30.0,30.27,SE,134,2.0,-999.0,79,0.00,,,-99.99,,2013-02-27 00:42:00,
2013-02-26 19:52:00,36.0,30.0,30.26,ESE,121,3.0,-999.0,80,0.00,,,-99.99,,2013-02-27 00:52:00,
2013-02-26 20:01:00,36.0,30.0,30.26,East,86,4.0,-999.0,80,0.00,,,-99.99,,2013-02-27 01:01:00,
2013-02-26 20:11:00,36.0,30.0,30.26,East,86,4.0,-999.0,80,0.00,,,-99.99,,2013-02-27 01:11:00,
2013-02-26 20:22:00,36.0,31.0,30.26,SE,134,3.0,-999.0,81,0.00,,,-99.99,,2013-02-27 01:22:00,
2013-02-26 20:32:00,36.0,31.0,30.26,ENE,59,3.0,-999.0,83,0.00,,,-99.99,,2013-02-27 01:32:00,
2013-02-26 20:42:00,36.0,31.0,30.26,ENE,59,3.0,-999.0,83,0.00,,,-99.99,,2013-02-27 01:42:00,
2013-02-26 20:51:00,36.0,32.0,30.26,ESE,108,2.0,-999.0,84,0.00,,,-99.99,,2013-02-27 01:51:00,
2013-02-26 21:01:00,36.0,32.0,30.27,East,89,4.0,-999.0,84,0.00,,,-99.99,,2013-02-27 02:01:00,
2013-02-26 21:15:00,36.0,32.0,30.27,East,89,4.0,-999.0,84,0.00,,,-99.99,,2013-02-27 02:15:00,
2013-02-26 21:23:00,35.0,31.0,30.25,East,86,3.0,-999.0,84,0.00,,,-99.99,,2013-02-27 02:23:00,
2013-02-26 21:32:00,35.0,31.0,30.24,East,93,3.0,-999.0,84,0.00,,,-99.99,,2013-02-27 02:32:00,
2013-02-26 21:42:00,35.0,31.0,30.24,East,93,3.0,-999.0,84,0.00,,,-99.99,,2013-02-27 02:42:00,
2013-02-26 21:52:00,35.0,31.0,30.24,East,89,3.0,-999.0,85,0.00,,,-99.99,,2013-02-27 02:52:00,
2013-02-26 22:02:00,35.0,31.0,30.24,East,89,3.0,-999.0,85,0.00,,,-99.99,,2013-02-27 03:02:00,
2013-02-26 22:11:00,35.0,31.0,30.23,East,98,5.0,-999.0,85,0.00,,,-99.99,,2013-02-27 03:11:00,
2013-02-26 22:22:00,35.0,31.0,30.23,East,98,5.0,-999.0,85,0.00,,,-99.99,,2013-02-27 03:22:00,
2013-02-26 22:32:00,35.0,31.0,30.22,East,84,3.0,-999.0,85,0.00,,,-99.99,,2013-02-27 03:32:00,
2013-02-26 22:42:00,35.0,31.0,30.22,East,84,3.0,-999.0,85,0.00,,,-99.99,,2013-02-27 03:42:00,
2013-02-26 22:52:00,36.0,32.0,30.22,ENE,77,5.0,-999.0,85,0.00,,,-99.99,,2013-02-27 03:52:00,
2013-02-26 23:01:00,36.0,32.0,30.20,ENE,70,5.0,-999.0,86,0.00,,,-99.99,,2013-02-27 04:01:00,
2013-02-26 23:11:00,36.0,32.0,30.20,ENE,70,5.0,-999.0,86,0.00,,,-99.99,,2013-02-27 04:11:00,
2013-02-26 23:22:00,36.0,33.0,30.20,East,91,11.0,-999.0,87,0.00,,,-99.99,,2013-02-27 04:22:00,
2013-02-26 23:32:00,36.0,33.0,30.18,East,89,9.0,-999.0,87,0.00,,,-99.99,,2013-02-27 04:32:00,
2013-02-26 23:42:00,36.0,33.0,30.18,East,89,9.0,-999.0,87,0.00,,,-99.99,,2013-02-27 04:42:00,
2013-02-26 23:52:00,36.0,33.0,30.17,ENE,70,9.0,-999.0,87,0.00,,,-99.99,,2013-02-27 04:52:00,